sensor_id;sensor_type;location;lat;lon;timestamp;P1;durP1;ratioP1;P2;durP2;ratioP2
9306;SDS011;4691;47.612;7.610;2023-07-24T00:02:10;17.33;;;9.30;;
9306;SDS011;4691;47.612;7.610;2023-07-24T00:04:35;24.67;;;10.05;;
9306;SDS011;4691;47.612;7.610;2023-07-24T00:07:00;20.83;;;10.75;;
9306;SDS011;4691;47.612;7.610;2023-07-24T00:09:25;21.10;;;10.37;;
9306;SDS011;4691;47.612;7.610;2023-07-24T00:11:51;21.65;;;10.57;;
9306;SDS011;4691;47.612;7.610;2023-07-24T00:14:16;23.58;;;10.75;;
9306;SDS011;4691;47.612;7.610;2023-07-24T00:16:41;19.63;;;10.02;;
9306;SDS011;4691;47.612;7.610;2023-07-24T00:19:07;22.80;;;10.68;;
9306;SDS011;4691;47.612;7.610;2023-07-24T00:21:32;19.38;;;10.50;;
9306;SDS011;4691;47.612;7.610;2023-07-24T00:23:57;18.33;;;9.80;;
9306;SDS011;4691;47.612;7.610;2023-07-24T00:26:23;20.98;;;9.63;;
9306;SDS011;4691;47.612;7.610;2023-07-24T00:28:48;20.63;;;10.57;;
9306;SDS011;4691;47.612;7.610;2023-07-24T00:31:13;20.65;;;11.13;;
9306;SDS011;4691;47.612;7.610;2023-07-24T00:33:39;20.77;;;10.75;;
9306;SDS011;4691;47.612;7.610;2023-07-24T00:36:04;22.52;;;10.52;;
9306;SDS011;4691;47.612;7.610;2023-07-24T00:38:29;22.13;;;10.90;;
9306;SDS011;4691;47.612;7.610;2023-07-24T00:40:55;20.73;;;10.15;;
9306;SDS011;4691;47.612;7.610;2023-07-24T00:43:20;22.58;;;10.68;;
9306;SDS011;4691;47.612;7.610;2023-07-24T00:45:45;19.92;;;10.30;;
9306;SDS011;4691;47.612;7.610;2023-07-24T00:48:12;21.13;;;10.70;;
9306;SDS011;4691;47.612;7.610;2023-07-24T00:50:37;22.27;;;10.63;;
9306;SDS011;4691;47.612;7.610;2023-07-24T00:53:04;21.17;;;10.48;;
9306;SDS011;4691;47.612;7.610;2023-07-24T00:55:29;22.65;;;10.73;;
9306;SDS011;4691;47.612;7.610;2023-07-24T00:57:56;21.67;;;10.95;;
9306;SDS011;4691;47.612;7.610;2023-07-24T01:00:23;20.98;;;10.38;;
9306;SDS011;4691;47.612;7.610;2023-07-24T01:02:48;22.20;;;11.25;;
9306;SDS011;4691;47.612;7.610;2023-07-24T01:05:14;22.55;;;11.02;;
9306;SDS011;4691;47.612;7.610;2023-07-24T01:07:40;22.02;;;10.75;;
9306;SDS011;4691;47.612;7.610;2023-07-24T01:10:05;24.25;;;10.52;;
9306;SDS011;4691;47.612;7.610;2023-07-24T01:12:35;20.75;;;10.68;;
9306;SDS011;4691;47.612;7.610;2023-07-24T01:15:20;24.90;;;11.20;;
9306;SDS011;4691;47.612;7.610;2023-07-24T01:17:59;25.63;;;11.30;;
9306;SDS011;4691;47.612;7.610;2023-07-24T01:20:28;23.67;;;11.15;;
9306;SDS011;4691;47.612;7.610;2023-07-24T01:26:00;21.67;;;11.02;;
9306;SDS011;4691;47.612;7.610;2023-07-24T01:28:27;23.63;;;11.18;;
9306;SDS011;4691;47.612;7.610;2023-07-24T01:30:53;22.45;;;10.40;;
9306;SDS011;4691;47.612;7.610;2023-07-24T01:33:19;22.48;;;10.60;;
9306;SDS011;4691;47.612;7.610;2023-07-24T01:35:48;20.10;;;10.40;;
9306;SDS011;4691;47.612;7.610;2023-07-24T01:38:19;23.85;;;11.05;;
9306;SDS011;4691;47.612;7.610;2023-07-24T01:40:46;18.67;;;9.85;;
9306;SDS011;4691;47.612;7.610;2023-07-24T01:43:12;22.02;;;10.70;;
9306;SDS011;4691;47.612;7.610;2023-07-24T01:45:39;25.73;;;12.23;;
9306;SDS011;4691;47.612;7.610;2023-07-24T01:48:04;22.95;;;10.60;;
9306;SDS011;4691;47.612;7.610;2023-07-24T01:50:32;21.95;;;11.07;;
9306;SDS011;4691;47.612;7.610;2023-07-24T01:52:58;19.45;;;10.68;;
9306;SDS011;4691;47.612;7.610;2023-07-24T01:55:23;24.67;;;11.18;;
9306;SDS011;4691;47.612;7.610;2023-07-24T01:57:49;19.35;;;10.43;;
9306;SDS011;4691;47.612;7.610;2023-07-24T02:00:14;20.25;;;10.70;;
9306;SDS011;4691;47.612;7.610;2023-07-24T02:02:39;24.13;;;11.48;;
9306;SDS011;4691;47.612;7.610;2023-07-24T02:05:05;23.63;;;11.40;;
9306;SDS011;4691;47.612;7.610;2023-07-24T02:07:30;24.15;;;10.63;;
9306;SDS011;4691;47.612;7.610;2023-07-24T02:09:56;21.90;;;10.98;;
9306;SDS011;4691;47.612;7.610;2023-07-24T02:12:21;21.23;;;11.60;;
9306;SDS011;4691;47.612;7.610;2023-07-24T02:14:47;22.38;;;11.75;;
9306;SDS011;4691;47.612;7.610;2023-07-24T02:19:31;25.17;;;11.48;;
9306;SDS011;4691;47.612;7.610;2023-07-24T02:21:57;24.17;;;10.93;;
9306;SDS011;4691;47.612;7.610;2023-07-24T02:24:22;24.23;;;11.15;;
9306;SDS011;4691;47.612;7.610;2023-07-24T02:26:48;22.02;;;11.13;;
9306;SDS011;4691;47.612;7.610;2023-07-24T02:29:13;24.40;;;11.63;;
9306;SDS011;4691;47.612;7.610;2023-07-24T02:31:38;25.48;;;11.15;;
9306;SDS011;4691;47.612;7.610;2023-07-24T02:34:03;24.92;;;11.43;;
9306;SDS011;4691;47.612;7.610;2023-07-24T02:36:29;22.75;;;11.32;;
9306;SDS011;4691;47.612;7.610;2023-07-24T02:38:54;22.25;;;11.35;;
9306;SDS011;4691;47.612;7.610;2023-07-24T02:41:19;22.77;;;11.10;;
9306;SDS011;4691;47.612;7.610;2023-07-24T02:43:45;28.42;;;11.77;;
9306;SDS011;4691;47.612;7.610;2023-07-24T02:46:10;25.40;;;11.70;;
9306;SDS011;4691;47.612;7.610;2023-07-24T02:48:35;24.20;;;11.75;;
9306;SDS011;4691;47.612;7.610;2023-07-24T02:51:01;25.83;;;11.48;;
9306;SDS011;4691;47.612;7.610;2023-07-24T02:53:26;25.17;;;11.65;;
9306;SDS011;4691;47.612;7.610;2023-07-24T02:55:51;23.75;;;11.80;;
9306;SDS011;4691;47.612;7.610;2023-07-24T02:58:16;22.85;;;10.50;;
9306;SDS011;4691;47.612;7.610;2023-07-24T03:00:42;22.00;;;11.13;;
9306;SDS011;4691;47.612;7.610;2023-07-24T03:03:07;27.42;;;11.27;;
9306;SDS011;4691;47.612;7.610;2023-07-24T03:05:35;22.98;;;11.18;;
9306;SDS011;4691;47.612;7.610;2023-07-24T03:08:01;23.07;;;11.53;;
9306;SDS011;4691;47.612;7.610;2023-07-24T03:10:26;27.00;;;11.65;;
9306;SDS011;4691;47.612;7.610;2023-07-24T03:12:52;23.23;;;12.20;;
9306;SDS011;4691;47.612;7.610;2023-07-24T03:15:17;24.00;;;11.82;;
9306;SDS011;4691;47.612;7.610;2023-07-24T03:17:43;26.83;;;12.40;;
9306;SDS011;4691;47.612;7.610;2023-07-24T03:20:09;25.05;;;11.98;;
9306;SDS011;4691;47.612;7.610;2023-07-24T03:22:43;21.67;;;11.30;;
9306;SDS011;4691;47.612;7.610;2023-07-24T03:25:09;26.90;;;12.35;;
9306;SDS011;4691;47.612;7.610;2023-07-24T03:27:34;24.88;;;12.13;;
9306;SDS011;4691;47.612;7.610;2023-07-24T03:30:00;26.48;;;12.07;;
9306;SDS011;4691;47.612;7.610;2023-07-24T03:32:25;23.90;;;11.32;;
9306;SDS011;4691;47.612;7.610;2023-07-24T03:34:51;26.95;;;12.10;;
9306;SDS011;4691;47.612;7.610;2023-07-24T03:37:16;23.38;;;11.48;;
9306;SDS011;4691;47.612;7.610;2023-07-24T03:39:42;26.13;;;12.57;;
9306;SDS011;4691;47.612;7.610;2023-07-24T03:42:09;28.13;;;12.63;;
9306;SDS011;4691;47.612;7.610;2023-07-24T03:44:37;24.65;;;12.60;;
9306;SDS011;4691;47.612;7.610;2023-07-24T03:47:02;26.35;;;11.70;;
9306;SDS011;4691;47.612;7.610;2023-07-24T03:49:28;24.23;;;11.60;;
9306;SDS011;4691;47.612;7.610;2023-07-24T03:51:53;27.23;;;12.93;;
9306;SDS011;4691;47.612;7.610;2023-07-24T03:54:18;25.30;;;11.88;;
9306;SDS011;4691;47.612;7.610;2023-07-24T03:56:43;29.02;;;12.32;;
9306;SDS011;4691;47.612;7.610;2023-07-24T03:59:09;29.02;;;13.13;;
9306;SDS011;4691;47.612;7.610;2023-07-24T04:01:34;26.17;;;12.25;;
9306;SDS011;4691;47.612;7.610;2023-07-24T04:03:59;25.88;;;12.35;;
9306;SDS011;4691;47.612;7.610;2023-07-24T04:06:25;27.30;;;12.88;;
9306;SDS011;4691;47.612;7.610;2023-07-24T04:08:50;28.75;;;11.82;;
9306;SDS011;4691;47.612;7.610;2023-07-24T04:11:15;25.95;;;12.18;;
9306;SDS011;4691;47.612;7.610;2023-07-24T04:13:40;28.52;;;12.70;;
9306;SDS011;4691;47.612;7.610;2023-07-24T04:16:06;28.75;;;13.98;;
9306;SDS011;4691;47.612;7.610;2023-07-24T04:18:31;31.25;;;14.38;;
9306;SDS011;4691;47.612;7.610;2023-07-24T04:20:56;28.67;;;13.45;;
9306;SDS011;4691;47.612;7.610;2023-07-24T04:23:22;36.17;;;15.55;;
9306;SDS011;4691;47.612;7.610;2023-07-24T04:25:49;35.53;;;14.77;;
9306;SDS011;4691;47.612;7.610;2023-07-24T04:28:14;35.97;;;15.50;;
9306;SDS011;4691;47.612;7.610;2023-07-24T04:30:40;32.03;;;14.85;;
9306;SDS011;4691;47.612;7.610;2023-07-24T04:33:05;33.00;;;14.63;;
9306;SDS011;4691;47.612;7.610;2023-07-24T04:35:30;33.67;;;14.77;;
9306;SDS011;4691;47.612;7.610;2023-07-24T04:37:55;35.70;;;15.20;;
9306;SDS011;4691;47.612;7.610;2023-07-24T04:40:22;31.33;;;15.32;;
9306;SDS011;4691;47.612;7.610;2023-07-24T04:42:47;28.50;;;13.10;;
9306;SDS011;4691;47.612;7.610;2023-07-24T04:45:13;32.08;;;13.27;;
9306;SDS011;4691;47.612;7.610;2023-07-24T04:47:38;38.30;;;14.00;;
9306;SDS011;4691;47.612;7.610;2023-07-24T04:50:04;34.42;;;13.43;;
9306;SDS011;4691;47.612;7.610;2023-07-24T04:52:29;34.10;;;13.32;;
9306;SDS011;4691;47.612;7.610;2023-07-24T04:54:54;29.17;;;11.60;;
9306;SDS011;4691;47.612;7.610;2023-07-24T04:57:20;23.80;;;10.60;;
9306;SDS011;4691;47.612;7.610;2023-07-24T04:59:45;21.77;;;9.80;;
9306;SDS011;4691;47.612;7.610;2023-07-24T05:02:11;19.63;;;9.40;;
9306;SDS011;4691;47.612;7.610;2023-07-24T05:04:36;19.45;;;8.50;;
9306;SDS011;4691;47.612;7.610;2023-07-24T05:07:02;24.40;;;7.97;;
9306;SDS011;4691;47.612;7.610;2023-07-24T05:09:27;18.13;;;8.38;;
9306;SDS011;4691;47.612;7.610;2023-07-24T05:11:52;16.88;;;7.82;;
9306;SDS011;4691;47.612;7.610;2023-07-24T05:14:17;13.32;;;7.82;;
9306;SDS011;4691;47.612;7.610;2023-07-24T05:16:43;23.23;;;7.95;;
9306;SDS011;4691;47.612;7.610;2023-07-24T05:19:08;18.70;;;8.50;;
9306;SDS011;4691;47.612;7.610;2023-07-24T05:21:33;20.38;;;8.00;;
9306;SDS011;4691;47.612;7.610;2023-07-24T05:23:59;17.20;;;7.80;;
9306;SDS011;4691;47.612;7.610;2023-07-24T05:26:24;25.63;;;9.70;;
9306;SDS011;4691;47.612;7.610;2023-07-24T05:28:49;26.65;;;10.05;;
9306;SDS011;4691;47.612;7.610;2023-07-24T05:31:14;19.38;;;8.52;;
9306;SDS011;4691;47.612;7.610;2023-07-24T05:33:40;19.25;;;7.97;;
9306;SDS011;4691;47.612;7.610;2023-07-24T05:36:05;19.55;;;8.73;;
9306;SDS011;4691;47.612;7.610;2023-07-24T05:38:31;21.92;;;9.00;;
9306;SDS011;4691;47.612;7.610;2023-07-24T05:40:57;18.00;;;9.07;;
9306;SDS011;4691;47.612;7.610;2023-07-24T05:43:26;17.50;;;8.85;;
9306;SDS011;4691;47.612;7.610;2023-07-24T05:45:53;21.88;;;9.38;;
9306;SDS011;4691;47.612;7.610;2023-07-24T05:51:41;22.30;;;10.00;;
9306;SDS011;4691;47.612;7.610;2023-07-24T05:54:07;20.27;;;9.15;;
9306;SDS011;4691;47.612;7.610;2023-07-24T05:56:32;25.95;;;10.63;;
9306;SDS011;4691;47.612;7.610;2023-07-24T05:58:57;21.90;;;10.73;;
9306;SDS011;4691;47.612;7.610;2023-07-24T06:01:22;26.58;;;10.52;;
9306;SDS011;4691;47.612;7.610;2023-07-24T06:03:48;23.60;;;11.40;;
9306;SDS011;4691;47.612;7.610;2023-07-24T06:06:13;25.38;;;10.45;;
9306;SDS011;4691;47.612;7.610;2023-07-24T06:08:39;22.83;;;10.30;;
9306;SDS011;4691;47.612;7.610;2023-07-24T06:11:04;35.15;;;12.40;;
9306;SDS011;4691;47.612;7.610;2023-07-24T06:13:29;19.25;;;10.65;;
9306;SDS011;4691;47.612;7.610;2023-07-24T06:15:54;24.05;;;11.23;;
9306;SDS011;4691;47.612;7.610;2023-07-24T06:18:20;22.95;;;10.60;;
9306;SDS011;4691;47.612;7.610;2023-07-24T06:20:45;27.95;;;11.73;;
9306;SDS011;4691;47.612;7.610;2023-07-24T06:23:10;25.20;;;11.57;;
9306;SDS011;4691;47.612;7.610;2023-07-24T06:25:36;25.60;;;12.13;;
9306;SDS011;4691;47.612;7.610;2023-07-24T06:28:01;24.63;;;11.82;;
9306;SDS011;4691;47.612;7.610;2023-07-24T06:30:26;26.15;;;10.95;;
9306;SDS011;4691;47.612;7.610;2023-07-24T06:32:52;27.33;;;10.98;;
9306;SDS011;4691;47.612;7.610;2023-07-24T06:35:17;25.73;;;10.73;;
9306;SDS011;4691;47.612;7.610;2023-07-24T06:37:42;22.92;;;10.38;;
9306;SDS011;4691;47.612;7.610;2023-07-24T06:40:08;25.83;;;10.85;;
9306;SDS011;4691;47.612;7.610;2023-07-24T06:42:34;20.27;;;10.38;;
9306;SDS011;4691;47.612;7.610;2023-07-24T06:44:59;19.33;;;9.45;;
9306;SDS011;4691;47.612;7.610;2023-07-24T06:47:25;23.20;;;10.15;;
9306;SDS011;4691;47.612;7.610;2023-07-24T06:49:51;25.52;;;10.75;;
9306;SDS011;4691;47.612;7.610;2023-07-24T06:52:16;21.10;;;9.38;;
9306;SDS011;4691;47.612;7.610;2023-07-24T06:54:41;21.95;;;10.18;;
9306;SDS011;4691;47.612;7.610;2023-07-24T06:57:07;18.63;;;9.38;;
9306;SDS011;4691;47.612;7.610;2023-07-24T06:59:32;26.92;;;9.15;;
9306;SDS011;4691;47.612;7.610;2023-07-24T07:01:57;20.58;;;9.70;;
9306;SDS011;4691;47.612;7.610;2023-07-24T07:04:23;19.25;;;9.60;;
9306;SDS011;4691;47.612;7.610;2023-07-24T07:06:48;24.80;;;9.65;;
9306;SDS011;4691;47.612;7.610;2023-07-24T07:09:13;26.77;;;10.05;;
9306;SDS011;4691;47.612;7.610;2023-07-24T07:11:39;18.95;;;9.20;;
9306;SDS011;4691;47.612;7.610;2023-07-24T07:14:04;18.73;;;8.75;;
9306;SDS011;4691;47.612;7.610;2023-07-24T07:16:29;17.95;;;8.85;;
9306;SDS011;4691;47.612;7.610;2023-07-24T07:18:55;20.88;;;9.32;;
9306;SDS011;4691;47.612;7.610;2023-07-24T07:21:20;21.35;;;9.30;;
9306;SDS011;4691;47.612;7.610;2023-07-24T07:23:45;17.95;;;9.05;;
9306;SDS011;4691;47.612;7.610;2023-07-24T07:26:11;20.48;;;9.80;;
9306;SDS011;4691;47.612;7.610;2023-07-24T07:28:36;20.45;;;10.70;;
9306;SDS011;4691;47.612;7.610;2023-07-24T07:31:02;23.83;;;11.13;;
9306;SDS011;4691;47.612;7.610;2023-07-24T07:33:27;21.67;;;10.60;;
9306;SDS011;4691;47.612;7.610;2023-07-24T07:35:54;21.42;;;10.25;;
9306;SDS011;4691;47.612;7.610;2023-07-24T07:38:19;18.38;;;9.40;;
9306;SDS011;4691;47.612;7.610;2023-07-24T07:40:47;19.60;;;9.13;;
9306;SDS011;4691;47.612;7.610;2023-07-24T07:43:12;21.15;;;8.68;;
9306;SDS011;4691;47.612;7.610;2023-07-24T07:45:38;21.20;;;9.10;;
9306;SDS011;4691;47.612;7.610;2023-07-24T07:48:03;20.35;;;8.82;;
9306;SDS011;4691;47.612;7.610;2023-07-24T07:50:28;17.38;;;8.85;;
9306;SDS011;4691;47.612;7.610;2023-07-24T07:52:54;20.65;;;9.30;;
9306;SDS011;4691;47.612;7.610;2023-07-24T07:55:19;18.58;;;8.55;;
9306;SDS011;4691;47.612;7.610;2023-07-24T07:57:44;20.27;;;8.77;;
9306;SDS011;4691;47.612;7.610;2023-07-24T08:00:10;18.98;;;9.27;;
9306;SDS011;4691;47.612;7.610;2023-07-24T08:02:35;18.00;;;8.88;;
9306;SDS011;4691;47.612;7.610;2023-07-24T08:05:05;18.60;;;9.13;;
9306;SDS011;4691;47.612;7.610;2023-07-24T08:07:34;22.05;;;10.18;;
9306;SDS011;4691;47.612;7.610;2023-07-24T08:10:00;22.17;;;9.70;;
9306;SDS011;4691;47.612;7.610;2023-07-24T08:12:25;21.25;;;8.80;;
9306;SDS011;4691;47.612;7.610;2023-07-24T08:14:50;19.02;;;9.32;;
9306;SDS011;4691;47.612;7.610;2023-07-24T08:17:15;21.73;;;9.93;;
9306;SDS011;4691;47.612;7.610;2023-07-24T08:19:41;17.70;;;8.73;;
9306;SDS011;4691;47.612;7.610;2023-07-24T08:22:06;19.55;;;8.13;;
9306;SDS011;4691;47.612;7.610;2023-07-24T08:24:35;15.13;;;8.27;;
9306;SDS011;4691;47.612;7.610;2023-07-24T08:27:00;16.50;;;8.45;;
9306;SDS011;4691;47.612;7.610;2023-07-24T08:29:26;17.33;;;9.13;;
9306;SDS011;4691;47.612;7.610;2023-07-24T08:31:51;19.83;;;9.38;;
9306;SDS011;4691;47.612;7.610;2023-07-24T08:34:16;17.92;;;9.50;;
9306;SDS011;4691;47.612;7.610;2023-07-24T08:36:42;17.30;;;9.50;;
9306;SDS011;4691;47.612;7.610;2023-07-24T08:39:07;20.67;;;9.13;;
9306;SDS011;4691;47.612;7.610;2023-07-24T08:41:32;17.52;;;8.73;;
9306;SDS011;4691;47.612;7.610;2023-07-24T08:43:59;19.02;;;9.38;;
9306;SDS011;4691;47.612;7.610;2023-07-24T08:46:25;18.30;;;8.52;;
9306;SDS011;4691;47.612;7.610;2023-07-24T08:48:52;19.17;;;8.70;;
9306;SDS011;4691;47.612;7.610;2023-07-24T08:51:19;18.13;;;8.50;;
9306;SDS011;4691;47.612;7.610;2023-07-24T08:53:46;16.95;;;8.50;;
9306;SDS011;4691;47.612;7.610;2023-07-24T08:56:13;15.95;;;8.23;;
9306;SDS011;4691;47.612;7.610;2023-07-24T08:58:39;18.60;;;8.98;;
9306;SDS011;4691;47.612;7.610;2023-07-24T09:01:04;17.17;;;8.32;;
9306;SDS011;4691;47.612;7.610;2023-07-24T09:03:30;16.75;;;8.32;;
9306;SDS011;4691;47.612;7.610;2023-07-24T09:05:57;17.20;;;8.63;;
9306;SDS011;4691;47.612;7.610;2023-07-24T09:08:32;20.35;;;9.57;;
9306;SDS011;4691;47.612;7.610;2023-07-24T09:10:59;11.88;;;6.28;;
9306;SDS011;4691;47.612;7.610;2023-07-24T09:13:26;12.95;;;5.35;;
9306;SDS011;4691;47.612;7.610;2023-07-24T09:15:51;17.63;;;4.90;;
9306;SDS011;4691;47.612;7.610;2023-07-24T09:18:17;10.80;;;5.38;;
9306;SDS011;4691;47.612;7.610;2023-07-24T09:20:43;8.25;;;3.63;;
9306;SDS011;4691;47.612;7.610;2023-07-24T09:23:09;7.50;;;2.97;;
9306;SDS011;4691;47.612;7.610;2023-07-24T09:25:37;9.93;;;3.30;;
9306;SDS011;4691;47.612;7.610;2023-07-24T09:28:14;11.10;;;2.67;;
9306;SDS011;4691;47.612;7.610;2023-07-24T09:30:53;8.02;;;2.40;;
9306;SDS011;4691;47.612;7.610;2023-07-24T09:33:33;7.32;;;2.40;;
9306;SDS011;4691;47.612;7.610;2023-07-24T09:36:00;6.25;;;2.60;;
9306;SDS011;4691;47.612;7.610;2023-07-24T09:38:26;9.45;;;2.70;;
9306;SDS011;4691;47.612;7.610;2023-07-24T09:40:52;5.50;;;2.17;;
9306;SDS011;4691;47.612;7.610;2023-07-24T09:43:22;9.43;;;2.55;;
9306;SDS011;4691;47.612;7.610;2023-07-24T09:45:49;12.20;;;2.85;;
9306;SDS011;4691;47.612;7.610;2023-07-24T09:48:15;12.35;;;3.20;;
9306;SDS011;4691;47.612;7.610;2023-07-24T09:50:42;6.65;;;2.67;;
9306;SDS011;4691;47.612;7.610;2023-07-24T09:53:20;13.27;;;2.83;;
9306;SDS011;4691;47.612;7.610;2023-07-24T09:56:03;11.35;;;3.17;;
9306;SDS011;4691;47.612;7.610;2023-07-24T09:58:32;13.63;;;3.65;;
9306;SDS011;4691;47.612;7.610;2023-07-24T10:00:59;18.37;;;3.40;;
9306;SDS011;4691;47.612;7.610;2023-07-24T10:03:26;15.07;;;3.97;;
9306;SDS011;4691;47.612;7.610;2023-07-24T10:05:52;21.80;;;4.13;;
9306;SDS011;4691;47.612;7.610;2023-07-24T10:08:19;15.80;;;3.50;;
9306;SDS011;4691;47.612;7.610;2023-07-24T10:10:44;13.27;;;4.45;;
9306;SDS011;4691;47.612;7.610;2023-07-24T10:13:10;9.40;;;3.40;;
9306;SDS011;4691;47.612;7.610;2023-07-24T10:15:39;12.10;;;4.35;;
9306;SDS011;4691;47.612;7.610;2023-07-24T10:18:08;13.93;;;5.05;;
9306;SDS011;4691;47.612;7.610;2023-07-24T10:20:34;15.30;;;6.53;;
9306;SDS011;4691;47.612;7.610;2023-07-24T10:23:04;15.40;;;5.80;;
9306;SDS011;4691;47.612;7.610;2023-07-24T10:25:30;12.70;;;5.53;;
9306;SDS011;4691;47.612;7.610;2023-07-24T10:28:00;15.77;;;7.15;;
9306;SDS011;4691;47.612;7.610;2023-07-24T10:30:30;18.38;;;6.53;;
9306;SDS011;4691;47.612;7.610;2023-07-24T10:33:03;13.13;;;5.90;;
9306;SDS011;4691;47.612;7.610;2023-07-24T10:35:36;14.52;;;5.38;;
9306;SDS011;4691;47.612;7.610;2023-07-24T10:38:02;14.07;;;6.88;;
9306;SDS011;4691;47.612;7.610;2023-07-24T10:40:27;11.45;;;5.32;;
9306;SDS011;4691;47.612;7.610;2023-07-24T10:43:26;14.88;;;5.40;;
9306;SDS011;4691;47.612;7.610;2023-07-24T10:45:52;11.18;;;4.97;;
9306;SDS011;4691;47.612;7.610;2023-07-24T10:48:23;10.25;;;5.18;;
9306;SDS011;4691;47.612;7.610;2023-07-24T10:50:50;13.30;;;4.90;;
9306;SDS011;4691;47.612;7.610;2023-07-24T10:53:17;12.13;;;5.28;;
9306;SDS011;4691;47.612;7.610;2023-07-24T10:55:44;13.15;;;5.60;;
9306;SDS011;4691;47.612;7.610;2023-07-24T10:58:12;13.68;;;5.68;;
9306;SDS011;4691;47.612;7.610;2023-07-24T11:00:39;14.25;;;6.10;;
9306;SDS011;4691;47.612;7.610;2023-07-24T11:03:07;14.23;;;6.57;;
9306;SDS011;4691;47.612;7.610;2023-07-24T11:05:34;12.82;;;6.45;;
9306;SDS011;4691;47.612;7.610;2023-07-24T11:07:59;15.95;;;6.35;;
9306;SDS011;4691;47.612;7.610;2023-07-24T11:10:25;15.82;;;8.10;;
9306;SDS011;4691;47.612;7.610;2023-07-24T11:12:50;15.85;;;9.20;;
9306;SDS011;4691;47.612;7.610;2023-07-24T11:15:22;16.08;;;7.45;;
9306;SDS011;4691;47.612;7.610;2023-07-24T11:17:49;15.77;;;6.93;;
9306;SDS011;4691;47.612;7.610;2023-07-24T11:20:15;14.95;;;6.32;;
9306;SDS011;4691;47.612;7.610;2023-07-24T11:22:41;13.68;;;6.53;;
9306;SDS011;4691;47.612;7.610;2023-07-24T11:25:09;17.67;;;7.28;;
9306;SDS011;4691;47.612;7.610;2023-07-24T11:27:42;13.00;;;6.78;;
9306;SDS011;4691;47.612;7.610;2023-07-24T11:30:09;14.68;;;7.18;;
9306;SDS011;4691;47.612;7.610;2023-07-24T11:32:38;12.80;;;6.22;;
9306;SDS011;4691;47.612;7.610;2023-07-24T11:35:04;13.95;;;7.15;;
9306;SDS011;4691;47.612;7.610;2023-07-24T11:37:30;18.10;;;6.90;;
9306;SDS011;4691;47.612;7.610;2023-07-24T11:39:59;12.25;;;6.25;;
9306;SDS011;4691;47.612;7.610;2023-07-24T11:42:38;14.02;;;6.72;;
9306;SDS011;4691;47.612;7.610;2023-07-24T11:45:13;12.77;;;6.43;;
9306;SDS011;4691;47.612;7.610;2023-07-24T11:47:43;13.32;;;6.30;;
9306;SDS011;4691;47.612;7.610;2023-07-24T11:50:15;13.98;;;6.43;;
9306;SDS011;4691;47.612;7.610;2023-07-24T11:52:41;15.27;;;7.13;;
9306;SDS011;4691;47.612;7.610;2023-07-24T11:55:14;16.15;;;6.88;;
9306;SDS011;4691;47.612;7.610;2023-07-24T11:57:59;13.55;;;6.18;;
9306;SDS011;4691;47.612;7.610;2023-07-24T12:00:25;27.70;;;7.72;;
9306;SDS011;4691;47.612;7.610;2023-07-24T12:02:51;15.43;;;7.63;;
9306;SDS011;4691;47.612;7.610;2023-07-24T12:05:17;15.02;;;7.65;;
9306;SDS011;4691;47.612;7.610;2023-07-24T12:07:43;23.58;;;6.60;;
9306;SDS011;4691;47.612;7.610;2023-07-24T12:10:10;14.63;;;7.35;;
9306;SDS011;4691;47.612;7.610;2023-07-24T12:12:38;12.93;;;6.70;;
9306;SDS011;4691;47.612;7.610;2023-07-24T12:15:10;16.50;;;6.57;;
9306;SDS011;4691;47.612;7.610;2023-07-24T12:17:36;21.45;;;7.05;;
9306;SDS011;4691;47.612;7.610;2023-07-24T12:20:04;14.65;;;6.78;;
9306;SDS011;4691;47.612;7.610;2023-07-24T12:22:33;13.23;;;6.53;;
9306;SDS011;4691;47.612;7.610;2023-07-24T12:24:58;17.70;;;6.85;;
9306;SDS011;4691;47.612;7.610;2023-07-24T12:27:24;14.85;;;6.97;;
9306;SDS011;4691;47.612;7.610;2023-07-24T12:29:49;15.93;;;7.05;;
9306;SDS011;4691;47.612;7.610;2023-07-24T12:32:16;14.55;;;6.68;;
9306;SDS011;4691;47.612;7.610;2023-07-24T12:34:42;13.88;;;6.90;;
9306;SDS011;4691;47.612;7.610;2023-07-24T12:37:07;19.35;;;6.20;;
9306;SDS011;4691;47.612;7.610;2023-07-24T12:39:32;18.48;;;6.82;;
9306;SDS011;4691;47.612;7.610;2023-07-24T12:41:57;15.55;;;6.72;;
9306;SDS011;4691;47.612;7.610;2023-07-24T12:44:23;16.00;;;7.07;;
9306;SDS011;4691;47.612;7.610;2023-07-24T12:46:48;12.38;;;6.50;;
9306;SDS011;4691;47.612;7.610;2023-07-24T12:49:14;16.17;;;7.20;;
9306;SDS011;4691;47.612;7.610;2023-07-24T12:51:39;16.85;;;7.55;;
9306;SDS011;4691;47.612;7.610;2023-07-24T12:54:04;14.75;;;7.15;;
9306;SDS011;4691;47.612;7.610;2023-07-24T12:56:29;18.60;;;7.68;;
9306;SDS011;4691;47.612;7.610;2023-07-24T12:58:55;17.13;;;8.27;;
9306;SDS011;4691;47.612;7.610;2023-07-24T13:01:20;16.10;;;7.28;;
9306;SDS011;4691;47.612;7.610;2023-07-24T13:03:46;14.70;;;7.50;;
9306;SDS011;4691;47.612;7.610;2023-07-24T13:06:11;11.70;;;6.75;;
9306;SDS011;4691;47.612;7.610;2023-07-24T13:08:36;12.35;;;6.28;;
9306;SDS011;4691;47.612;7.610;2023-07-24T13:11:02;18.08;;;7.68;;
9306;SDS011;4691;47.612;7.610;2023-07-24T13:13:28;15.48;;;7.50;;
9306;SDS011;4691;47.612;7.610;2023-07-24T13:22:39;14.82;;;7.15;;
9306;SDS011;4691;47.612;7.610;2023-07-24T13:25:04;15.70;;;7.13;;
9306;SDS011;4691;47.612;7.610;2023-07-24T13:27:30;12.38;;;6.65;;
9306;SDS011;4691;47.612;7.610;2023-07-24T13:29:55;14.63;;;6.80;;
9306;SDS011;4691;47.612;7.610;2023-07-24T13:32:20;14.30;;;7.32;;
9306;SDS011;4691;47.612;7.610;2023-07-24T13:34:46;14.93;;;6.78;;
9306;SDS011;4691;47.612;7.610;2023-07-24T13:37:12;19.25;;;7.30;;
9306;SDS011;4691;47.612;7.610;2023-07-24T13:39:37;16.85;;;8.20;;
9306;SDS011;4691;47.612;7.610;2023-07-24T13:42:03;17.45;;;7.07;;
9306;SDS011;4691;47.612;7.610;2023-07-24T13:44:28;20.65;;;8.40;;
9306;SDS011;4691;47.612;7.610;2023-07-24T13:46:54;19.75;;;8.60;;
9306;SDS011;4691;47.612;7.610;2023-07-24T13:49:21;17.02;;;7.82;;
9306;SDS011;4691;47.612;7.610;2023-07-24T13:51:46;14.25;;;7.55;;
9306;SDS011;4691;47.612;7.610;2023-07-24T13:54:11;15.25;;;7.03;;
9306;SDS011;4691;47.612;7.610;2023-07-24T13:56:37;18.75;;;7.22;;
9306;SDS011;4691;47.612;7.610;2023-07-24T13:59:03;15.23;;;7.50;;
9306;SDS011;4691;47.612;7.610;2023-07-24T14:01:28;15.30;;;7.78;;
9306;SDS011;4691;47.612;7.610;2023-07-24T14:03:54;16.80;;;7.50;;
9306;SDS011;4691;47.612;7.610;2023-07-24T14:06:19;14.93;;;7.32;;
9306;SDS011;4691;47.612;7.610;2023-07-24T14:08:44;15.80;;;7.07;;
9306;SDS011;4691;47.612;7.610;2023-07-24T14:11:10;17.02;;;8.20;;
9306;SDS011;4691;47.612;7.610;2023-07-24T14:13:35;17.30;;;7.43;;
9306;SDS011;4691;47.612;7.610;2023-07-24T14:16:00;16.33;;;7.93;;
9306;SDS011;4691;47.612;7.610;2023-07-24T14:18:25;26.30;;;8.50;;
9306;SDS011;4691;47.612;7.610;2023-07-24T14:20:51;22.52;;;9.63;;
9306;SDS011;4691;47.612;7.610;2023-07-24T14:23:19;20.55;;;9.27;;
9306;SDS011;4691;47.612;7.610;2023-07-24T14:25:44;19.90;;;9.32;;
9306;SDS011;4691;47.612;7.610;2023-07-24T14:28:10;19.27;;;7.78;;
9306;SDS011;4691;47.612;7.610;2023-07-24T14:30:35;18.13;;;8.07;;
9306;SDS011;4691;47.612;7.610;2023-07-24T14:33:00;16.42;;;7.35;;
9306;SDS011;4691;47.612;7.610;2023-07-24T14:35:26;19.60;;;8.48;;
9306;SDS011;4691;47.612;7.610;2023-07-24T14:37:51;17.08;;;8.90;;
9306;SDS011;4691;47.612;7.610;2023-07-24T14:40:17;20.67;;;8.85;;
9306;SDS011;4691;47.612;7.610;2023-07-24T14:42:42;19.33;;;9.55;;
9306;SDS011;4691;47.612;7.610;2023-07-24T14:45:08;21.38;;;8.82;;
9306;SDS011;4691;47.612;7.610;2023-07-24T14:47:34;20.38;;;8.95;;
9306;SDS011;4691;47.612;7.610;2023-07-24T14:49:59;15.60;;;8.68;;
9306;SDS011;4691;47.612;7.610;2023-07-24T14:52:24;15.38;;;8.48;;
9306;SDS011;4691;47.612;7.610;2023-07-24T14:54:50;15.52;;;8.35;;
9306;SDS011;4691;47.612;7.610;2023-07-24T14:57:15;15.60;;;8.48;;
9306;SDS011;4691;47.612;7.610;2023-07-24T14:59:40;17.70;;;7.75;;
9306;SDS011;4691;47.612;7.610;2023-07-24T15:02:06;24.60;;;7.45;;
9306;SDS011;4691;47.612;7.610;2023-07-24T15:04:31;15.13;;;7.47;;
9306;SDS011;4691;47.612;7.610;2023-07-24T15:06:57;15.50;;;7.10;;